Relevés horaires Matro (Suisse)


Relevés horaires à Matro - Dimanche 24 Avr. 2022
Heure UTC1 Température [°C] Vent [km/h] Hum. [%] Pres.4 [hPa] Visi. [Km] Nébu. [octa] Préc.5 [mm] Cond.
2m. Res. Ros. Dir.2 Vit. Moy. Raf.3
23:00 -2.5 -4.7 -3.6 E 5.6 -- 13.0 92 850(0.8/3h) -- -- -- --
22:00 -2.8 -6.5 -3.3 SE 9.3 -- 13.0 96 850(1.1/3h) -- -- -- --
21:00 -2.8 -6.5 -2.8 SSE 9.3 -- 14.8 100 850(1.4/3h) -- -- -- --
20:00 -2.0 -4.9 -2.1 SSE 7.4 -- 13.0 99 850(1.4/3h) -- -- -- --
19:00 -2.7 -5.7 -2.7 SSE 7.4 -- 14.8 100 850(1.2/3h) -- -- -- --
18:00 -2.5 -6.6 -2.5 SE 11.1 -- 29.6 100 850(0.9/3h) -- -- -- --
17:00 -2.5 -6.6 -2.5 SE 11.1 -- 20.4 100 850(0.9/3h) -- -- -- --
16:00 -2.4 -7.7 -2.6 S 16.7 -- 29.6 99 850(0.7/3h) -- -- -- --
15:00 -2.2 -7.5 -2.4 S 16.7 -- 29.6 99 850(0.6/3h) -- -- -- --
14:00 -2.4 -6.9 -2.4 S 13.0 -- 25.9 100 850(0.5/3h) -- -- -- --
13:00 -2.2 -7.5 -2.2 S 16.7 -- 29.6 100 850(0.7/3h) -- -- -- --
12:00 -2.8 -9.4 -3.1 SSE 24.1 -- 50.0 98 850(1.1/3h) -- -- -- --
11:00 -2.9 -8.7 -3.1 SSE 18.5 -- 27.8 99 850(1.3/3h) -- -- -- --
10:00 -2.8 -8.5 -3.7 SSE 18.5 -- 37.0 93 850(1.3/3h) -- -- -- --
09:00 -3.2 -10.1 -3.5 SSE 25.9 -- 50.0 98 850(1.3/3h) -- -- -- --
08:00 -3.7 -11.7 -3.9 SE 33.3 -- 44.4 99 850(1.4/3h) -- -- -- --
07:00 -4.2 -12.9 -4.6 SSE 38.9 -- 50.0 97 850(0.8/3h) -- -- -- --
06:00 -3.6 -11.7 -4.2 SSE 35.2 -- 59.3 96 850(0.4/3h) -- -- -- --
05:00 -3.9 -13.5 -4.1 SE 50.0 -- 59.3 99 850(-0.3/3h) -- -- -- --
04:00 -3.4 -11.7 -3.4 SSE 37.0 -- 55.6 100 850(-0.6/3h) -- -- -- --
03:00 -3.3 -12 -3.3 SE 42.6 -- 59.3 100 850(-1.7/3h) -- -- -- --
02:00 -3.3 -11.5 -3.3 SSE 37.0 -- 59.3 100 850(-0.5/3h) -- -- -- --
01:00 -3.0 -11.1 -3.0 SSE 37.0 -- 53.7 100 850(0.4/3h) -- -- -- --
00:00 -3.0 -10.3 -3.0 S 29.6 -- 100.0 100 850(0.7/3h) -- -- -- --

1 Coordinated Universal Time. Actuellement il est 06:00 locale et 04:00 UTC.

2 Le vent souffle depuis la direction indiquée vers la direction oposée.

3 Les rafales max. sont disponible 40 min après l'heure du relevé.

4 Pour les stations d'altitude (plus de 600m) le géopotentiel du niveau le plus proche de la pression obligatoire est indiqué.

5 Les stations disposant d'un diffuseur peuvent indiquer "trace". Cela signifie que des précipitations ont touchés le sol mais que la quantité est inférieure à 0.1 mm.

Copyright

Les données affichées sur cette page sont la propriété exclusive de Météo Suisse.

Récapitulatif de la journée
Température [°C] Vent [km/h] Ensoleillement4 [h] Precipitations totale5 [mm] Pression [Hpa]
Min1 Max.2 Moy.3 Max. Min Max.
-4.2 -1.7 0 100.0 0 h 6 min 0 850.0 850.0

1 Température minimale relevée entre 18:00 UTC la veille et 18:00 UTC le jour donné.

2 Température maximale relevée entre 06:00 UTC le jour donné et 06:00 UTC le lendemain.

3 Vent moyen de la journée basé sur les relevés horaires.

4 Ensoleillement en heures relevé entre 06:00 UTC la veille et 06:00 UTC le jour donné.

5 Précipitations totales tombées entre 06:00 UTC la jour donné et 06:00 UTC le lendemain.

Graphiques horaires